Trainer, Pennsylvania
Current Conditions -  °F | °C
As of 7:54 AM on Friday 24 Oct 2014 (Local Time) from KPHL Reporting Station
Broken Clouds Broken Clouds  
Wind Chill: 57°   Ceiling: 3500
Heat Index: 57°   Visibility: 10mi
Dew Point: 45°   Wind: 9mph
Humidity: 64%   Direction: 310°NW
Pressure: 29.85"   Gusts: NA
Location:  39.8393°N, 75.4661°W
Report Text: KPHL 241154Z 31008KT 10SM BKN035 14/07 A2985 RMK AO2 SLP109 T01390072 10139 20128 53001 PNO $
Loading
Personal Weather Stations






























Interactive Weather Map
Tropical Storm Tracking
New forecast layout! Learn more

10-Day Weather Forecast

Advertisements
Track Severe Weather on mobile